Terminal Aerodrome Forecast
Issued by NWS

Home | Current Version | Previous Version | Graphics & Text | Print | Product List | Glossary Off
Versions: 1 2 3 4 5 6 7 8 9 10 11 12 13 14 15 16

000
FTUS43 KICT 291725
TAFHUT
TAF
KHUT 291725Z 2918/3018 35020G28KT P6SM BKN035
     FM292000 35017KT P6SM SCT040
     FM300000 01007KT P6SM BKN250
     FM301200 09004KT P6SM BKN250=

USA.gov is the U.S. government's official web portal to all federal, state and local government web resources and services.